KTOR

Torrington Municipal Airport

Torrington, Wyoming, USA
METAR KTOR 122053Z AUTO 27018G27KT 10SM OVC060 07/M04 A2966 RMK AO2 PK WND 28033/2000 SLP042 T00721039 53002
Observed Flight Rules
Dec-12 @ 20:53 UTC (15 minutes ago) Visual Flight Rules
Wind Visibility Clouds
270° at 18 knots
 Gusting to 27 knots
10 miles
  • Overcast at 6,000' AGL
Temperatures Readings
Current 7°C / 45°F
Dewpoint -4°C / 25°F
Humidity 46%
Altimeter 29.66" Hg
Pressure 1004.2 hPa
Elevation 1277
METAR KTOR 122053Z AUTO 27018G27KT 10SM OVC060 07/M04 A2966 RMK AO2 PK WND 28033/2000 SLP042 T00721039 53002
Observed Flight Rules
Dec-12 @ 20:53 UTC
(15 minutes ago)
VFR
Wind Visibility
270° at 18 knots
 Gusting to 27 knots
10 miles
Clouds
  • Overcast at 6,000' AGL
Temperature Dewpoint
7°C / 45°F -4°C / 25°F
Humidity Altimeter Pressure
46% 29.66" Hg 1004.2 hPa